Terminal Aerodrome Forecast
Issued by NWS Quad Cities IA IL

Home | Current Version | Previous Version | Text Only | Print | Product List | Glossary On
Versions: 1 2 3 4 5 6 7 8 9 10 11 12 13 14 15 16 17 18 19 20 21 22 23 24 25 26
000
FTUS43 KDVN 260520
TAFDBQ
TAF
KDBQ 260520Z 2606/2706 18009KT P6SM BKN250
     FM260900 18007KT 5SM BR BKN250
     FM261500 19009KT P6SM BKN120 PROB30 2621/2701 4SM TSRA BKN040CB
     FM270100 30004KT 5SM SHRA BR OVC025=

USA.gov is the U.S. government's official web portal to all federal, state and local government web resources and services.